createdAt,value
2023-03-30T00:01:43.056Z,69.52
2023-03-30T00:06:45.985Z,69.20
2023-03-30T00:11:49.177Z,68.99
2023-03-30T00:16:53.498Z,69.13
2023-03-30T00:21:56.772Z,69.26
2023-03-30T00:26:59.954Z,69.57
2023-03-30T00:32:03.573Z,69.50
2023-03-30T00:37:06.462Z,69.60
2023-03-30T00:42:17.781Z,70.05
2023-03-30T00:47:21.466Z,70.60
2023-03-30T00:52:25.110Z,70.74
2023-03-30T00:57:28.752Z,70.95
2023-03-30T01:02:39.743Z,70.89
2023-03-30T01:07:46.510Z,70.74
2023-03-30T01:12:50.057Z,70.84
2023-03-30T01:18:08.962Z,71.10
2023-03-30T01:23:27.432Z,71.20
2023-03-30T01:28:49.107Z,71.49
2023-03-30T01:34:57.840Z,72.09
2023-03-30T01:40:17.395Z,72.07
2023-03-30T01:45:26.259Z,72.20
2023-03-30T01:51:06.203Z,73.45
2023-03-30T01:56:51.879Z,74.01
2023-03-30T02:02:04.328Z,74.25
2023-03-30T02:07:19.325Z,74.91
2023-03-30T02:12:23.916Z,76.33
2023-03-30T02:17:30.872Z,76.27
2023-03-30T02:22:34.190Z,76.64
2023-03-30T02:27:38.644Z,76.58
2023-03-30T02:32:52.129Z,76.76
2023-03-30T02:38:20.144Z,77.47
2023-03-30T02:44:03.828Z,77.78
2023-03-30T02:49:25.898Z,79.12
2023-03-30T02:54:54.225Z,79.16
2023-03-30T03:00:24.716Z,79.52
2023-03-30T03:05:28.836Z,79.60
2023-03-30T03:10:36.314Z,79.37
2023-03-30T03:15:39.440Z,79.19
2023-03-30T03:20:42.956Z,79.18
2023-03-30T03:25:45.926Z,79.05
2023-03-30T03:30:52.167Z,79.05
2023-03-30T03:35:55.636Z,79.19
2023-03-30T03:40:59.809Z,79.56
2023-03-30T03:46:03.229Z,79.13
2023-03-30T03:51:07.163Z,79.11
2023-03-30T03:56:11.657Z,79.22
2023-03-30T04:01:15.409Z,79.13
2023-03-30T04:06:18.493Z,79.29
2023-03-30T04:11:22.360Z,79.50
2023-03-30T04:16:25.474Z,79.55
2023-03-30T04:21:29.956Z,79.46
2023-03-30T04:26:32.998Z,79.81
2023-03-30T04:31:38.325Z,80.11
2023-03-30T04:36:44.446Z,80.20
2023-03-30T04:41:47.905Z,80.26
2023-03-30T04:46:50.992Z,80.01
2023-03-30T04:51:54.748Z,79.99
2023-03-30T04:56:57.738Z,79.64
2023-03-30T05:02:01.012Z,79.05
2023-03-30T05:07:04.870Z,78.72
2023-03-30T05:12:08.149Z,78.42
2023-03-30T05:17:11.736Z,78.27
2023-03-30T05:22:16.380Z,77.78
2023-03-30T05:27:20.045Z,77.08
2023-03-30T05:32:23.162Z,76.23
2023-03-30T05:37:26.675Z,75.73
2023-03-30T05:42:29.608Z,74.87
2023-03-30T05:47:32.669Z,73.36
2023-03-30T05:52:35.618Z,72.72
2023-03-30T05:57:38.665Z,72.59
2023-03-30T06:02:41.800Z,72.40
2023-03-30T06:07:45.861Z,70.94
2023-03-30T06:12:48.812Z,69.71
2023-03-30T06:17:52.922Z,68.05
2023-03-30T06:22:56.536Z,67.65
2023-03-30T06:27:59.531Z,66.59
2023-03-30T06:33:02.552Z,65.66
2023-03-30T06:38:05.640Z,63.82
2023-03-30T06:43:18.373Z,63.57
2023-03-30T06:48:24.057Z,63.64
2023-03-30T06:53:27.124Z,62.80
2023-03-30T06:58:30.756Z,62.06
2023-03-30T07:03:33.845Z,62.07
2023-03-30T07:08:37.295Z,62.16
2023-03-30T07:13:40.832Z,62.26
2023-03-30T07:18:43.784Z,62.20
2023-03-30T07:23:46.750Z,60.40
2023-03-30T07:28:49.732Z,60.99
2023-03-30T07:33:53.041Z,60.31
2023-03-30T07:38:58.500Z,60.69
2023-03-30T07:44:01.800Z,59.19
2023-03-30T07:49:04.580Z,57.60
2023-03-30T07:54:10.340Z,57.65
2023-03-30T07:59:13.665Z,56.36
2023-03-30T08:04:18.250Z,54.99
2023-03-30T08:09:21.451Z,53.66
2023-03-30T08:14:26.556Z,51.40
2023-03-30T08:19:29.587Z,51.56
2023-03-30T08:24:33.073Z,50.70
2023-03-30T08:29:36.048Z,50.68
2023-03-30T08:34:39.410Z,51.78
2023-03-30T08:39:42.501Z,52.29
2023-03-30T08:44:54.155Z,52.33
2023-03-30T08:50:34.481Z,52.91
2023-03-30T08:56:00.884Z,53.79
2023-03-30T09:01:07.425Z,53.78
2023-03-30T09:06:26.819Z,53.03
2023-03-30T09:11:37.128Z,52.55
2023-03-30T09:16:56.052Z,53.04
2023-03-30T09:22:03.797Z,52.69
2023-03-30T09:27:41.359Z,52.57
2023-03-30T09:33:00.263Z,53.18
2023-03-30T09:38:04.307Z,53.01
2023-03-30T09:43:19.287Z,52.91
2023-03-30T09:48:22.108Z,51.33
2023-03-30T09:53:29.297Z,50.19
2023-03-30T09:58:34.627Z,49.83
2023-03-30T10:03:38.060Z,48.40
2023-03-30T10:08:52.233Z,48.66
2023-03-30T10:13:55.211Z,48.87
2023-03-30T10:19:04.934Z,49.43
2023-03-30T10:24:23.379Z,50.28
2023-03-30T10:29:29.624Z,50.36
2023-03-30T10:34:46.260Z,50.11
2023-03-30T10:39:51.236Z,49.21
2023-03-30T10:45:06.793Z,49.97
2023-03-30T10:50:12.803Z,49.44
2023-03-30T10:55:38.896Z,49.61
2023-03-30T11:01:26.720Z,49.59
2023-03-30T11:06:40.110Z,48.44
2023-03-30T11:11:56.424Z,47.33
2023-03-30T11:17:10.753Z,49.58
2023-03-30T11:22:33.430Z,49.01
2023-03-30T11:27:48.273Z,49.58
2023-03-30T11:33:08.262Z,50.19
2023-03-30T11:38:57.136Z,50.76
2023-03-30T11:44:00.123Z,49.90
2023-03-30T11:49:33.463Z,49.27
2023-03-30T11:55:08.358Z,49.92
2023-03-30T12:00:34.653Z,48.20
2023-03-30T12:05:53.325Z,49.44
2023-03-30T12:11:12.163Z,49.51
2023-03-30T12:16:29.334Z,48.87
2023-03-30T12:21:38.229Z,47.59
2023-03-30T12:26:43.780Z,47.78
2023-03-30T12:32:03.738Z,47.72
2023-03-30T12:37:35.013Z,48.17
2023-03-30T12:42:46.937Z,48.02
2023-03-30T12:48:17.079Z,48.79
2023-03-30T12:53:31.776Z,47.99
2023-03-30T12:59:31.162Z,48.65
2023-03-30T13:04:40.555Z,48.98
2023-03-30T13:10:06.543Z,48.68
2023-03-30T13:15:42.366Z,49.11
2023-03-30T13:20:48.299Z,49.08
2023-03-30T13:26:39.760Z,50.16
2023-03-30T13:32:12.955Z,50.23
2023-03-30T13:37:51.722Z,50.54
2023-03-30T13:43:17.084Z,50.90
2023-03-30T13:48:41.816Z,50.74
2023-03-30T13:53:57.019Z,51.04
2023-03-30T13:59:07.610Z,51.14
2023-03-30T14:04:13.837Z,50.69
2023-03-30T14:09:26.460Z,51.23
2023-03-30T14:14:30.117Z,51.39
2023-03-30T14:19:37.000Z,52.01
2023-03-30T14:24:40.029Z,51.84
2023-03-30T14:29:49.700Z,51.49
2023-03-30T14:34:54.687Z,52.30
2023-03-30T14:39:57.757Z,52.30
2023-03-30T14:45:01.241Z,52.63
2023-03-30T14:50:08.865Z,52.76
2023-03-30T14:55:24.121Z,53.54
2023-03-30T15:00:46.095Z,53.09
2023-03-30T15:05:49.134Z,53.20
2023-03-30T15:10:58.653Z,53.45
2023-03-30T15:16:02.521Z,53.35
2023-03-30T15:21:07.976Z,53.88
2023-03-30T15:26:12.683Z,54.08
2023-03-30T15:31:16.529Z,54.03
2023-03-30T15:36:26.795Z,54.74
2023-03-30T15:42:04.315Z,55.12
2023-03-30T15:47:17.977Z,55.60
2023-03-30T15:52:34.777Z,56.77
2023-03-30T15:57:46.118Z,60.05
2023-03-30T16:02:59.356Z,63.62
2023-03-30T16:08:02.580Z,66.13
2023-03-30T16:13:07.185Z,68.15
2023-03-30T16:18:12.481Z,70.89
2023-03-30T16:23:15.498Z,73.20
2023-03-30T16:28:18.963Z,76.01
2023-03-30T16:33:21.950Z,78.46
2023-03-30T16:38:25.486Z,79.30
2023-03-30T16:43:28.536Z,80.47
2023-03-30T16:48:31.567Z,81.88
2023-03-30T16:53:34.650Z,83.84
2023-03-30T16:58:37.954Z,85.60
2023-03-30T17:03:41.305Z,85.94
2023-03-30T17:08:44.861Z,86.25
2023-03-30T17:13:49.071Z,86.54
2023-03-30T17:18:52.066Z,87.36
2023-03-30T17:23:55.328Z,87.82
2023-03-30T17:28:58.275Z,88.39
2023-03-30T17:34:01.333Z,88.81
2023-03-30T17:39:05.055Z,89.43
2023-03-30T17:44:08.241Z,90.02
2023-03-30T17:49:17.848Z,90.34
2023-03-30T17:54:20.921Z,90.90
2023-03-30T17:59:23.876Z,91.38
2023-03-30T18:04:27.821Z,91.75
2023-03-30T18:09:31.333Z,92.36
2023-03-30T18:14:34.405Z,92.89
2023-03-30T18:19:37.327Z,93.55
2023-03-30T18:24:41.137Z,93.72
2023-03-30T18:29:47.133Z,93.81
2023-03-30T18:34:50.071Z,93.74
2023-03-30T18:39:53.487Z,94.09
2023-03-30T18:44:56.565Z,94.94
2023-03-30T18:49:59.557Z,95.26
2023-03-30T18:55:02.951Z,95.70
2023-03-30T19:00:21.569Z,96.35
2023-03-30T19:05:27.448Z,96.50
2023-03-30T19:10:38.784Z,96.67
2023-03-30T19:15:42.551Z,97.32
2023-03-30T19:20:46.407Z,97.70
2023-03-30T19:25:49.906Z,97.97
2023-03-30T19:30:53.365Z,98.17
2023-03-30T19:35:56.390Z,98.45
2023-03-30T19:41:04.883Z,98.31
2023-03-30T19:46:08.817Z,98.36
2023-03-30T19:51:14.826Z,98.49
2023-03-30T19:56:18.443Z,98.66
2023-03-30T20:01:21.946Z,99.23
2023-03-30T20:06:25.836Z,99.87
2023-03-30T20:11:29.164Z,100.00
2023-03-30T20:16:35.151Z,100.00
2023-03-30T20:21:39.270Z,100.00
2023-03-30T20:26:42.382Z,100.00
2023-03-30T20:31:46.326Z,100.00
2023-03-30T20:36:49.963Z,100.00
2023-03-30T20:41:58.324Z,100.00
2023-03-30T20:47:04.071Z,100.00
2023-03-30T20:52:07.158Z,100.00
2023-03-30T20:57:10.484Z,100.00
2023-03-30T21:02:14.611Z,100.00
2023-03-30T21:07:18.166Z,100.00
2023-03-30T21:12:21.392Z,100.00
2023-03-30T21:17:24.771Z,100.00
2023-03-30T21:22:29.878Z,100.00
2023-03-30T21:27:32.743Z,100.00
2023-03-30T21:32:35.945Z,100.00
2023-03-30T21:37:38.966Z,100.00
2023-03-30T21:42:41.758Z,100.00
2023-03-30T21:47:44.537Z,100.00
2023-03-30T21:52:48.339Z,100.00
2023-03-30T21:57:51.296Z,100.00
2023-03-30T22:02:54.320Z,100.00
2023-03-30T22:07:57.421Z,100.00
2023-03-30T22:13:00.324Z,100.00
2023-03-30T22:18:06.954Z,100.00
2023-03-30T22:23:09.945Z,100.00
2023-03-30T22:28:13.037Z,100.00
2023-03-30T22:33:17.370Z,100.00
2023-03-30T22:38:20.639Z,100.00
2023-03-30T22:43:24.224Z,100.00
2023-03-30T22:48:27.279Z,100.00
2023-03-30T22:53:31.682Z,100.00
2023-03-30T22:58:35.990Z,100.00
2023-03-30T23:03:39.326Z,100.00
2023-03-30T23:08:42.582Z,100.00
2023-03-30T23:13:45.637Z,100.00
2023-03-30T23:18:50.467Z,100.00
2023-03-30T23:23:53.473Z,100.00
2023-03-30T23:28:57.161Z,100.00
2023-03-30T23:34:00.491Z,100.00
2023-03-30T23:39:03.642Z,100.00
2023-03-30T23:44:06.723Z,100.00
2023-03-30T23:49:10.103Z,100.00
2023-03-30T23:54:15.759Z,100.00
2023-03-30T23:59:18.589Z,100.00
